Time;durP1;ratioP1;P1;durP2;ratioP2;P2;SDS_P1;SDS_P2;PMS_P1;PMS_P2;Temp;Humidity;BMP_temperature;BMP_pressure;BME280_temperature;BME280_humidity;BME280_pressure;Samples;Min_cycle;Max_cycle;Signal;HPM_P1;HPM_P2
2022/08/12 00:45:14;;;;;;;4.72;1.55;;;;;;;20.01;40.23;99096.09;5123339;27;20112;-77
2022/08/12 00:47:43;;;;;;;4.82;1.60;;;;;;;19.88;40.24;99080.69;5132123;27;20051;-77
2022/08/12 00:50:16;;;;;;;2.88;1.60;;;;;;;19.98;40.52;99099.34;5126900;27;20047;-77
2022/08/12 00:52:45;;;;;;;1.65;1.50;;;;;;;19.94;40.54;99087.13;5123278;27;20054;-77
2022/08/12 00:55:13;;;;;;;3.00;1.60;;;;;;;20.00;40.69;99104.63;5127805;27;20043;-77
2022/08/12 00:57:46;;;;;;;4.60;1.70;;;;;;;19.76;40.65;99074.34;5127638;27;20138;-77
2022/08/12 01:00:16;;;;;;;10.20;2.08;;;;;;;19.86;40.87;99099.41;5130437;27;20093;-77
2022/08/12 01:02:47;;;;;;;4.70;1.58;;;;;;;19.75;41.09;99101.13;5130449;27;20508;-77
2022/08/12 01:13:48;;;;;;;3.17;1.60;;;;;;;19.47;42.02;99073.53;5044552;28;20447;-77
2022/08/12 01:16:18;;;;;;;2.45;1.42;;;;;;;19.62;42.12;99102.22;5046064;28;20037;-77
2022/08/12 01:18:46;;;;;;;4.03;1.88;;;;;;;19.61;42.18;99106.06;5081159;27;20126;-77
2022/08/12 01:21:19;;;;;;;4.90;1.80;;;;;;;19.51;42.21;99108.63;5132024;27;20049;-77
2022/08/12 01:23:50;;;;;;;4.32;1.80;;;;;;;19.38;42.51;99084.94;5128758;27;20050;-77
2022/08/12 01:26:22;;;;;;;1.88;1.60;;;;;;;19.50;42.42;99106.97;5126368;27;20047;-76
2022/08/12 01:28:52;;;;;;;3.03;1.60;;;;;;;19.32;42.47;99066.63;5131501;27;20075;-76
2022/08/12 01:31:20;;;;;;;1.63;1.48;;;;;;;19.40;42.37;99093.78;5126777;27;20044;-76
2022/08/12 01:33:58;;;;;;;2.35;1.67;;;;;;;19.18;42.77;99071.59;5129437;27;20035;-77
2022/08/12 01:36:27;;;;;;;3.75;1.30;;;;;;;19.35;42.90;99098.38;5128903;27;20104;-77
2022/08/12 01:39:04;;;;;;;3.53;1.50;;;;;;;19.34;42.95;99111.31;5130061;27;20108;-77
2022/08/12 01:41:38;;;;;;;3.50;1.60;;;;;;;19.15;43.06;99065.69;5118020;27;20179;-77
2022/08/12 01:44:07;;;;;;;4.15;1.40;;;;;;;19.32;42.98;99090.59;5122421;27;20039;-77
2022/08/12 01:46:43;;;;;;;3.75;1.60;;;;;;;19.17;42.88;99052.53;5124195;27;20062;-77
2022/08/12 01:49:32;;;;;;;2.80;1.70;;;;;;;19.27;43.09;99059.09;5129451;27;20035;-77
2022/08/12 01:52:03;;;;;;;3.33;1.57;;;;;;;19.11;43.16;99054.34;5125621;27;20043;-77
2022/08/12 01:54:37;;;;;;;2.45;1.50;;;;;;;19.22;43.46;99063.66;5129295;27;20047;-77
2022/08/12 01:57:13;;;;;;;6.82;1.77;;;;;;;19.15;43.62;99065.69;5131596;27;20047;-77
2022/08/12 01:59:57;;;;;;;2.30;1.90;;;;;;;19.02;43.50;99047.53;5125296;27;20047;-77
2022/08/12 02:02:31;;;;;;;3.03;1.70;;;;;;;19.16;43.75;99076.47;5124756;27;20055;-77
2022/08/12 02:11:18;;;;;;;5.55;1.60;;;;;;;18.89;44.20;99066.03;5126645;28;20050;-77
2022/08/12 02:14:10;;;;;;;3.33;1.70;;;;;;;18.83;44.26;99061.41;5121398;27;20055;-77
2022/08/12 02:16:50;;;;;;;2.75;1.83;;;;;;;18.79;44.36;99060.25;5128501;28;20051;-77
2022/08/12 02:19:29;;;;;;;2.85;1.60;;;;;;;18.81;44.64;99066.34;5120512;28;20036;-77
2022/08/12 02:22:19;;;;;;;5.85;1.88;;;;;;;18.77;44.58;99061.56;5122606;28;20043;-77
2022/08/12 02:24:46;;;;;;;1.88;1.33;;;;;;;18.85;44.74;99086.84;5119964;28;20046;-77
2022/08/12 02:27:15;;;;;;;6.05;1.55;;;;;;;18.75;44.86;99078.31;5129036;28;20050;-77
2022/08/12 02:29:43;;;;;;;5.32;1.73;;;;;;;18.61;45.03;99057.59;5119901;28;20273;-77
2022/08/12 02:32:10;;;;;;;4.30;1.67;;;;;;;18.61;45.23;99080.50;5121739;28;20402;-77
2022/08/12 02:34:38;;;;;;;2.63;1.80;;;;;;;18.73;44.96;99083.25;5128055;28;20051;-77
2022/08/12 02:37:05;;;;;;;5.00;2.03;;;;;;;18.65;45.17;99073.44;5115398;28;20041;-77
2022/08/12 02:39:32;;;;;;;4.65;1.73;;;;;;;18.77;45.13;99084.41;5121025;28;20511;-77
2022/08/12 02:42:02;;;;;;;2.67;1.70;;;;;;;18.62;45.47;99065.63;5111311;27;20089;-77
2022/08/12 02:44:35;;;;;;;5.88;1.63;;;;;;;18.48;45.51;99056.78;5124921;28;20085;-77
2022/08/12 02:47:05;;;;;;;3.45;1.50;;;;;;;18.40;45.80;99051.66;5130817;27;20047;-77
2022/08/12 02:49:35;;;;;;;6.22;1.90;;;;;;;18.55;46.02;99074.00;5133956;27;20050;-77
2022/08/12 02:52:03;;;;;;;3.95;1.83;;;;;;;18.55;45.97;99074.00;5127202;27;20043;-77
2022/08/12 02:54:29;;;;;;;3.42;1.88;;;;;;;18.54;45.86;99079.75;5132044;27;20051;-77
2022/08/12 02:56:56;;;;;;;6.20;1.60;;;;;;;18.44;45.88;99049.25;5128852;27;20043;-77
2022/08/12 02:59:26;;;;;;;5.00;1.70;;;;;;;18.39;45.94;99034.28;5134518;27;20047;-77
2022/08/12 03:01:53;;;;;;;;;;;;;;;18.55;45.89;99076.78;5132848;27;20057;-77
2022/08/12 03:04:26;;;;;;;3.22;2.03;;;;;;;18.51;46.13;99071.97;5128539;27;19923;-77
2022/08/12 03:07:01;;;;;;;2.95;2.13;;;;;;;18.43;45.86;99053.06;5134687;27;20058;-77
2022/08/12 03:09:32;;;;;;;5.50;1.77;;;;;;;18.54;45.96;99063.25;5129612;27;20041;-77
2022/08/12 03:12:04;;;;;;;2.92;1.65;;;;;;;18.51;45.92;99069.22;5127328;27;20047;-77
2022/08/12 03:14:34;;;;;;;7.45;1.65;;;;;;;18.36;46.11;99044.94;5133846;27;20410;-77
2022/08/12 03:17:08;;;;;;;3.40;1.90;;;;;;;18.36;46.30;99044.94;5134685;27;20498;-77
2022/08/12 03:19:38;;;;;;;6.40;1.80;;;;;;;18.27;46.09;99040.88;5127925;27;20044;-78
2022/08/12 03:22:11;;;;;;;2.90;2.20;;;;;;;18.37;46.19;99050.19;5132470;27;20440;-77
2022/08/12 03:24:41;;;;;;;4.40;1.65;;;;;;;18.30;46.52;99038.47;5117575;27;20448;-77
2022/08/12 03:27:09;;;;;;;6.07;1.60;;;;;;;18.47;46.33;99073.53;5134444;27;20513;-77
2022/08/12 03:29:37;;;;;;;4.20;1.90;;;;;;;18.35;46.74;99059.75;5133077;27;20489;-77
2022/08/12 03:32:05;;;;;;;2.47;1.60;;;;;;;18.25;46.39;99041.09;5132615;27;20066;-77
2022/08/12 03:34:36;;;;;;;3.45;1.70;;;;;;;18.23;46.44;99037.72;5132436;27;20051;-76
2022/08/12 03:37:05;;;;;;;2.30;1.60;;;;;;;18.27;46.48;99040.88;5127073;27;20113;-77
2022/08/12 03:39:40;;;;;;;2.25;1.52;;;;;;;18.43;46.43;99053.91;5130473;27;20047;-77
2022/08/12 03:42:21;;;;;;;5.07;1.63;;;;;;;18.44;46.27;99063.00;5130791;27;20252;-77
2022/08/12 04:01:37;;;;;;;4.40;1.60;;;;;;;18.10;47.69;99085.56;5132302;27;20058;-76
2022/08/12 04:04:04;;;;;;;2.58;1.60;;;;;;;17.89;48.26;99072.34;5127866;27;20055;-77
2022/08/12 04:06:32;;;;;;;7.35;1.70;;;;;;;17.90;48.46;99091.41;5132735;27;20055;-77
2022/08/12 04:08:59;;;;;;;1.67;1.55;;;;;;;17.81;49.07;99085.34;5130183;27;20406;-76
2022/08/12 04:14:16;;;;;;;1.98;1.73;;;;;;;17.55;50.45;99093.97;5125381;27;20136;-76
2022/08/12 04:16:49;;;;;;;10.50;2.00;;;;;;;17.33;50.51;99075.25;5126027;27;20406;-77
2022/08/12 04:19:18;;;;;;;2.45;1.65;;;;;;;17.34;51.27;99080.50;5119599;27;20042;-77
2022/08/12 04:21:47;;;;;;;4.60;1.80;;;;;;;17.07;51.40;99058.03;5127263;27;20047;-77
2022/08/12 04:24:14;;;;;;;9.75;2.00;;;;;;;17.16;51.07;99080.50;5127753;27;20047;-77
2022/08/12 04:26:40;;;;;;;4.13;2.30;;;;;;;17.33;51.10;99092.56;5131046;27;20074;-78
2022/08/12 04:29:09;;;;;;;4.30;1.65;;;;;;;17.22;50.51;99074.09;5128194;27;20050;-78
2022/08/12 04:31:39;;;;;;;5.95;1.90;;;;;;;16.96;51.22;99056.03;5132217;27;20047;-77
2022/08/12 04:34:07;;;;;;;7.05;1.75;;;;;;;16.96;51.60;99078.84;5124643;27;20510;-77
2022/08/12 04:36:35;;;;;;;8.45;2.33;;;;;;;16.87;51.92;99077.47;5129429;27;20410;-77
2022/08/12 04:39:05;;;;;;;1.83;1.50;;;;;;;16.87;52.13;99074.72;5122138;27;20051;-78
2022/08/12 04:41:32;;;;;;;7.82;2.35;;;;;;;16.93;52.20;99071.06;5132482;27;20069;-77
2022/08/12 04:43:59;;;;;;;2.47;2.10;;;;;;;16.77;52.03;99079.84;5129989;27;20549;-77
2022/08/12 04:46:26;;;;;;;3.05;1.85;;;;;;;16.98;52.08;99104.19;5124838;27;20132;-77
2022/08/12 04:48:53;;;;;;;4.35;2.03;;;;;;;16.96;51.90;99072.50;5128451;27;20040;-78
2022/08/12 04:51:20;;;;;;;4.15;2.03;;;;;;;17.12;52.03;99093.03;5130973;27;20054;-78
2022/08/12 04:53:48;;;;;;;3.42;1.90;;;;;;;16.92;51.95;99083.13;5127481;27;20050;-77
2022/08/12 04:56:17;;;;;;;2.88;1.80;;;;;;;16.98;52.49;99086.84;5131618;27;20104;-78
2022/08/12 04:58:43;;;;;;;3.47;1.60;;;;;;;17.05;51.40;99073.88;5128427;27;20379;-78
2022/08/12 05:01:10;;;;;;;3.38;1.70;;;;;;;17.27;51.31;99087.16;5117607;27;20049;-77
2022/08/12 05:03:37;;;;;;;3.20;1.67;;;;;;;17.45;51.03;99095.38;5119197;27;20044;-77
2022/08/12 05:06:05;;;;;;;3.42;1.80;;;;;;;17.51;51.15;99099.94;5131566;27;20091;-77
2022/08/12 05:08:32;;;;;;;4.13;1.85;;;;;;;17.50;51.13;99078.19;5118501;27;20448;-77
2022/08/12 05:11:00;;;;;;;4.60;1.75;;;;;;;17.69;50.57;99095.47;5118738;27;20050;-77
2022/08/12 05:13:34;;;;;;;9.30;1.95;;;;;;;17.82;50.64;99105.44;5121655;27;20051;-77
2022/08/12 05:16:00;;;;;;;3.65;1.77;;;;;;;17.82;50.06;99100.75;5123435;27;20043;-78
2022/08/12 05:18:27;;;;;;;2.33;1.67;;;;;;;17.97;49.73;99096.78;5123737;27;20139;-78
2022/08/12 05:20:54;;;;;;;5.20;1.88;;;;;;;17.91;49.79;99081.22;5123165;27;20057;-78
2022/08/12 05:23:22;;;;;;;2.03;1.60;;;;;;;17.92;49.66;99075.50;5123267;27;20126;-78
2022/08/12 05:25:50;;;;;;;3.33;1.65;;;;;;;17.99;49.80;99076.22;5129528;27;20051;-78
2022/08/12 05:28:18;;;;;;;5.97;1.73;;;;;;;18.06;49.87;99089.03;5126029;27;20044;-78
2022/08/12 05:30:46;;;;;;;2.85;1.65;;;;;;;18.29;49.38;99097.34;5127280;27;20054;-77
2022/08/12 05:33:14;;;;;;;3.20;1.65;;;;;;;18.44;49.05;99094.13;5113391;27;20081;-78
2022/08/12 05:35:43;;;;;;;2.92;1.80;;;;;;;18.67;48.30;99106.22;5127803;27;20059;-78
2022/08/12 05:40:55;;;;;;;2.22;1.50;;;;;;;18.76;48.11;99099.28;5130064;27;20414;-78
2022/08/12 05:43:21;;;;;;;2.85;1.70;;;;;;;18.88;48.14;99108.41;5113390;27;20048;-78
2022/08/12 05:45:50;;;;;;;3.88;1.73;;;;;;;18.93;47.75;99107.69;5123669;27;20417;-79
2022/08/12 05:48:16;;;;;;;3.55;1.63;;;;;;;19.31;47.29;99122.00;5124763;27;20500;-78
2022/08/12 05:50:44;;;;;;;3.25;1.77;;;;;;;19.45;47.00;99117.84;5120002;27;20070;-78
2022/08/12 05:53:12;;;;;;;1.98;1.70;;;;;;;19.65;46.25;99120.22;5132962;27;20047;-78
2022/08/12 05:55:39;;;;;;;2.50;1.63;;;;;;;19.65;45.73;99103.66;5131440;27;20043;-79
2022/08/12 05:58:06;;;;;;;2.38;1.92;;;;;;;20.04;45.41;99134.22;5126802;27;20095;-76
2022/08/12 06:00:34;;;;;;;3.58;1.63;;;;;;;20.34;44.97;99122.06;5132404;27;20055;-77
2022/08/12 06:03:06;;;;;;;3.33;2.15;;;;;;;20.71;44.34;99102.22;5116314;27;20047;-77
2022/08/12 06:05:35;;;;;;;4.90;1.63;;;;;;;20.89;43.33;99122.38;5118811;27;20464;-76
2022/08/12 06:08:04;;;;;;;5.93;1.73;;;;;;;21.26;42.78;99125.41;5121914;27;20047;-77
2022/08/12 06:10:32;;;;;;;4.57;1.60;;;;;;;21.44;41.73;99104.91;5128017;27;20487;-76
2022/08/12 06:12:58;;;;;;;2.70;1.45;;;;;;;21.70;41.05;99119.06;5124192;28;20051;-76
2022/08/12 06:15:25;;;;;;;3.83;1.67;;;;;;;22.04;41.58;99107.78;5119349;28;20062;-77
2022/08/12 06:17:52;;;;;;;3.58;2.03;;;;;;;22.23;40.70;99119.31;5121608;28;20047;-77
2022/08/12 06:20:20;;;;;;;3.25;1.48;;;;;;;22.55;39.99;99116.59;5116465;27;20040;-76
2022/08/12 06:22:47;;;;;;;5.80;1.30;;;;;;;22.51;39.27;99120.16;5130473;27;20361;-77
2022/08/12 06:25:17;;;;;;;2.13;1.80;;;;;;;22.63;39.08;99105.00;5120566;27;20044;-76
2022/08/12 06:27:47;;;;;;;3.17;1.35;;;;;;;22.90;38.86;99131.78;5130818;27;20043;-76
2022/08/12 06:30:14;;;;;;;;;;;;;;;22.93;39.16;99136.81;5123785;27;20044;-77
2022/08/12 06:32:42;;;;;;;2.00;1.50;;;;;;;23.10;38.60;99119.19;5118962;27;19952;-77
2022/08/12 06:35:09;;;;;;;4.55;1.52;;;;;;;23.31;38.10;99128.47;5123987;27;20070;-77
2022/08/12 06:37:40;;;;;;;2.97;1.60;;;;;;;23.48;37.30;99133.78;5123612;27;20061;-76
2022/08/12 06:40:09;;;;;;;5.78;1.73;;;;;;;23.91;37.44;99125.34;5126986;27;20087;-77
2022/08/12 06:42:47;;;;;;;3.15;2.00;;;;;;;23.86;36.48;99131.72;5131248;27;20046;-77
2022/08/12 06:45:14;;;;;;;3.90;1.67;;;;;;;23.47;37.62;99115.47;5134167;27;20039;-77
2022/08/12 06:47:41;;;;;;;1.98;1.60;;;;;;;23.73;37.08;99130.28;5123146;27;20055;-77
2022/08/12 06:50:10;;;;;;;3.78;1.90;;;;;;;23.92;36.83;99136.22;5130755;27;20050;-76
2022/08/12 06:52:36;;;;;;;3.53;1.50;;;;;;;23.73;36.89;99099.75;5126371;27;20205;-76
2022/08/12 06:55:06;;;;;;;2.28;1.60;;;;;;;24.24;36.78;99121.28;5125261;27;20483;-77
2022/08/12 06:57:32;;;;;;;1.65;1.40;;;;;;;24.29;36.12;99093.50;5121047;27;20059;-77
2022/08/12 06:59:59;;;;;;;2.20;1.85;;;;;;;24.33;35.60;99104.91;5130887;27;20047;-77
2022/08/12 07:02:26;;;;;;;6.30;1.70;;;;;;;24.68;35.56;99122.69;5130149;27;20043;-77
2022/08/12 07:04:52;;;;;;;6.35;1.75;;;;;;;24.52;35.76;99103.22;5132916;27;20463;-77
2022/08/12 07:07:19;;;;;;;2.30;1.35;;;;;;;24.88;35.29;99103.19;5135735;27;20043;-77
2022/08/12 07:09:48;;;;;;;5.07;1.50;;;;;;;24.74;35.21;99091.00;5121260;27;20043;-77
2022/08/12 07:12:18;;;;;;;3.10;1.67;;;;;;;24.64;34.90;99102.94;5133638;27;20500;-77
2022/08/12 07:14:44;;;;;;;3.25;1.95;;;;;;;25.07;35.11;99119.31;5136029;27;20051;-77
2022/08/12 07:17:11;;;;;;;3.50;1.48;;;;;;;25.18;33.98;99117.31;5131096;27;20050;-77
2022/08/12 07:19:38;;;;;;;2.45;1.38;;;;;;;25.15;33.86;99103.97;5136001;27;20047;-77
2022/08/12 07:22:06;;;;;;;2.60;1.45;;;;;;;25.34;33.80;99095.88;5129036;27;20046;-77
2022/08/12 07:24:33;;;;;;;2.83;1.70;;;;;;;25.46;33.80;99109.44;5132664;27;20054;-77
2022/08/12 07:26:59;;;;;;;4.32;1.50;;;;;;;25.24;34.44;99128.13;5137819;27;20047;-78
2022/08/12 07:29:27;;;;;;;5.10;1.50;;;;;;;25.25;34.42;99129.81;5123377;27;20066;-77
2022/08/12 07:31:58;;;;;;;1.40;1.30;;;;;;;25.18;34.31;99132.06;5123256;27;20053;-77
2022/08/12 07:34:25;;;;;;;3.50;1.60;;;;;;;25.14;33.95;99096.75;5126986;27;20253;-76
2022/08/12 07:36:52;;;;;;;2.15;1.25;;;;;;;25.40;33.94;99106.69;5126494;27;20039;-77
2022/08/12 07:39:18;;;;;;;3.47;1.40;;;;;;;25.36;34.13;99097.25;5126720;27;20036;-77
2022/08/12 07:41:45;;;;;;;3.45;1.45;;;;;;;25.20;33.71;99102.03;5118543;27;20055;-76
2022/08/12 07:44:12;;;;;;;5.10;1.48;;;;;;;25.37;33.79;99101.72;5134554;27;20039;-76
2022/08/12 07:46:42;;;;;;;6.60;1.92;;;;;;;25.41;33.57;99110.31;5132502;27;20050;-76
2022/08/12 07:49:11;;;;;;;3.45;1.80;;;;;;;25.50;34.01;99110.56;5132241;27;20383;-77
2022/08/12 07:51:38;;;;;;;1.70;1.35;;;;;;;25.73;33.52;99093.19;5135290;27;20055;-77
2022/08/12 07:54:08;;;;;;;8.90;1.77;;;;;;;25.83;33.10;99106.19;5134327;27;20047;-76
2022/08/12 07:56:35;;;;;;;;;;;;;;;25.96;33.32;99122.28;5132782;27;20051;-77
2022/08/12 07:59:02;;;;;;;5.28;2.03;;;;;;;25.64;33.61;99086.56;5133766;27;19930;-77
2022/08/12 08:01:31;;;;;;;2.72;1.63;;;;;;;25.77;32.93;99104.56;5125276;27;20051;-77
2022/08/12 08:06:43;;;;;;;2.83;1.13;;;;;;;25.52;33.47;99099.97;5133882;27;20314;-76
2022/08/12 08:09:12;;;;;;;3.10;1.38;;;;;;;25.74;33.48;99119.06;5133570;27;20054;-77
2022/08/12 08:14:28;;;;;;;2.67;1.65;;;;;;;25.86;33.02;99104.81;5131137;27;20073;-76
2022/08/12 08:16:55;;;;;;;2.33;1.65;;;;;;;26.04;33.10;99089.41;5131612;27;20069;-77
2022/08/12 08:19:24;;;;;;;3.53;1.50;;;;;;;26.02;32.25;99081.34;5133471;27;20054;-76
2022/08/12 08:21:51;;;;;;;2.25;1.50;;;;;;;26.24;31.93;99103.19;5133519;27;20043;-76
2022/08/12 08:24:18;;;;;;;3.55;1.58;;;;;;;25.78;32.63;99106.25;5129470;27;20138;-77
2022/08/12 08:26:47;;;;;;;4.07;1.30;;;;;;;25.73;33.29;99109.03;5133022;27;20402;-76
2022/08/12 08:29:14;;;;;;;1.50;1.40;;;;;;;25.70;33.11;99090.97;5131250;27;20058;-77
2022/08/12 08:31:42;;;;;;;4.13;1.40;;;;;;;25.76;32.32;99091.78;5116757;27;20055;-77
2022/08/12 08:34:09;;;;;;;2.00;1.50;;;;;;;25.88;32.60;99105.34;5130572;27;20172;-77
2022/08/12 08:36:38;;;;;;;4.32;1.60;;;;;;;25.61;32.63;99087.13;5132779;27;20414;-77
2022/08/12 08:39:05;;;;;;;;;;;;;;;25.68;32.28;99109.06;5133570;27;20141;-76
2022/08/12 08:44:16;;;;;;;4.60;1.50;;;;;;;25.58;32.03;99098.84;5119373;27;20053;-76
2022/08/12 08:46:43;;;;;;;7.13;1.58;;;;;;;25.68;32.57;99070.94;5110430;28;20052;-76
2022/08/12 08:49:10;;;;;;;3.38;1.38;;;;;;;25.73;32.23;99086.75;5112058;28;20048;-76
2022/08/12 08:51:39;;;;;;;4.13;1.70;;;;;;;25.88;32.49;99095.06;5130069;27;20050;-77
2022/08/12 08:54:07;;;;;;;4.03;1.38;;;;;;;25.76;31.77;99087.03;5131559;27;20038;-77
2022/08/12 08:56:42;;;;;;;3.05;1.20;;;;;;;25.54;30.99;99076.28;5129430;27;20100;-77
2022/08/12 08:59:10;;;;;;;2.47;1.10;;;;;;;25.43;31.09;99078.31;5132621;27;20051;-77
2022/08/12 09:01:36;;;;;;;3.90;1.23;;;;;;;25.89;31.62;99102.25;5127790;27;20051;-76
2022/08/12 09:04:03;;;;;;;2.90;1.35;;;;;;;26.08;30.67;99102.47;5131685;27;20497;-76
2022/08/12 09:06:30;;;;;;;2.85;2.33;;;;;;;25.63;30.18;99087.66;5132456;27;20055;-78
2022/08/12 09:08:58;;;;;;;1.98;1.05;;;;;;;25.69;30.82;99069.81;5115789;27;20486;-76
2022/08/12 09:14:09;;;;;;;4.40;1.10;;;;;;;26.45;30.08;99101.06;5121933;27;20054;-76
2022/08/12 09:16:38;;;;;;;3.67;1.45;;;;;;;26.37;29.66;99082.19;5131255;27;20149;-77
2022/08/12 09:19:04;;;;;;;3.27;1.10;;;;;;;26.56;28.38;99107.38;5132315;27;20051;-77
2022/08/12 09:21:31;;;;;;;4.20;1.38;;;;;;;26.22;28.54;99091.50;5120771;27;20513;-77
2022/08/12 09:24:00;;;;;;;2.15;1.20;;;;;;;26.05;29.23;99075.19;5131110;27;20554;-77
2022/08/12 09:26:27;;;;;;;3.80;0.93;;;;;;;26.13;30.48;99093.22;5132288;27;20051;-76
2022/08/12 09:28:53;;;;;;;1.15;1.05;;;;;;;25.88;30.05;99061.63;5130336;27;20332;-76
2022/08/12 09:31:20;;;;;;;3.25;1.30;;;;;;;26.13;30.47;99090.44;5130929;27;20071;-77
2022/08/12 09:33:49;;;;;;;2.42;1.30;;;;;;;26.23;29.88;99086.78;5117523;27;20032;-77
2022/08/12 09:36:16;;;;;;;5.97;2.80;;;;;;;26.49;29.92;99054.75;5131946;27;20100;-77
2022/08/12 09:38:43;;;;;;;1.52;1.15;;;;;;;26.41;29.08;99060.16;5131050;27;20047;-77
2022/08/12 09:41:14;;;;;;;4.50;1.48;;;;;;;26.50;29.53;99084.28;5130290;27;20036;-77
2022/08/12 09:46:28;;;;;;;2.58;1.55;;;;;;;26.63;30.16;99068.00;5121124;27;20058;-76
2022/08/12 09:48:54;;;;;;;6.55;1.50;;;;;;;26.53;29.25;99065.31;5131634;27;20054;-77
2022/08/12 09:51:21;;;;;;;5.05;1.40;;;;;;;26.42;29.62;99050.66;5131760;27;20049;-77
2022/08/12 09:53:48;;;;;;;7.00;1.30;;;;;;;26.77;29.71;99079.34;5127239;27;20486;-76
2022/08/12 09:56:18;;;;;;;6.05;1.45;;;;;;;26.74;29.95;99060.41;5131183;27;20051;-76
2022/08/12 09:58:46;;;;;;;1.88;1.33;;;;;;;26.48;29.33;99043.91;5123013;27;20460;-76
2022/08/12 10:01:13;;;;;;;13.80;1.88;;;;;;;26.51;29.65;99034.94;5131288;27;20043;-76
2022/08/12 10:03:41;;;;;;;4.47;1.55;;;;;;;26.70;29.51;99037.88;5127446;27;21714;-76
2022/08/12 10:06:08;;;;;;;1.55;1.45;;;;;;;27.10;29.34;99040.47;5128321;27;20047;-77
2022/08/12 10:08:37;;;;;;;2.45;1.45;;;;;;;27.07;28.64;99027.97;5131467;27;20152;-76
2022/08/12 10:13:54;;;;;;;8.05;1.60;;;;;;;27.44;28.70;99026.41;5129863;28;20057;-76
2022/08/12 10:16:23;;;;;;;5.93;1.55;;;;;;;27.45;28.08;99033.66;5130427;28;20130;-77
2022/08/12 10:18:52;;;;;;;5.18;1.45;;;;;;;27.27;28.55;99004.56;5119395;28;20060;-76
2022/08/12 10:21:21;;;;;;;2.70;1.40;;;;;;;27.63;27.90;99034.78;5118210;28;20125;-76
2022/08/12 10:23:49;;;;;;;4.45;1.63;;;;;;;27.70;27.19;99032.47;5121311;28;20311;-77
2022/08/12 10:31:50;;;;;;;3.60;1.20;;;;;;;27.78;27.37;99002.22;5111104;28;20508;-77
2022/08/12 10:34:18;;;;;;;3.10;1.10;;;;;;;28.00;28.42;99013.63;5114659;28;20092;-77
2022/08/12 10:36:46;;;;;;;2.13;1.10;;;;;;;28.07;26.35;98990.84;5123206;28;20050;-77
2022/08/12 10:39:14;;;;;;;3.13;1.42;;;;;;;28.03;26.43;99010.22;5130850;28;20509;-77
2022/08/12 10:44:28;;;;;;;5.07;1.50;;;;;;;28.13;26.23;99011.16;5129659;28;20054;-77
2022/08/12 10:46:55;;;;;;;2.00;1.10;;;;;;;27.93;25.61;98985.19;5119580;28;20142;-76
2022/08/12 10:49:24;;;;;;;5.20;1.23;;;;;;;28.24;25.38;98991.13;5130052;28;20047;-77
2022/08/12 10:51:51;;;;;;;1.75;1.17;;;;;;;28.40;25.65;98980.47;5129236;28;20047;-76
2022/08/12 10:54:18;;;;;;;1.50;1.30;;;;;;;28.21;25.59;98990.91;5129087;27;20500;-76
2022/08/12 10:56:48;;;;;;;1.13;1.02;;;;;;;28.22;25.39;98992.56;5130694;28;20047;-76
2022/08/12 10:59:15;;;;;;;1.40;1.15;;;;;;;28.30;24.78;98963.91;5128298;28;20139;-77
2022/08/12 11:01:43;;;;;;;1.10;1.00;;;;;;;28.26;26.40;98982.44;5110339;28;20495;-76
2022/08/12 11:04:12;;;;;;;5.13;1.55;;;;;;;28.16;25.64;98993.78;5112970;28;20044;-76
2022/08/12 11:06:46;;;;;;;7.85;1.50;;;;;;;27.32;26.45;98967.38;5130201;27;20051;-76
2022/08/12 11:09:16;;;;;;;16.08;1.15;;;;;;;27.47;26.46;98978.34;5125081;27;20371;-76
2022/08/12 11:11:42;;;;;;;;;;;;;;;27.94;25.48;98983.22;5117929;27;20039;-77
2022/08/12 11:14:09;;;;;;;1.40;1.13;;;;;;;27.99;24.97;98960.84;5127960;27;19954;-77
2022/08/12 11:16:37;;;;;;;3.05;1.02;;;;;;;28.59;24.79;98972.06;5127793;27;20132;-77
2022/08/12 11:19:04;;;;;;;2.72;1.00;;;;;;;28.68;25.21;98979.72;5134751;27;20051;-78
2022/08/12 11:21:31;;;;;;;3.92;1.08;;;;;;;28.89;25.18;98969.78;5134479;27;20054;-77
2022/08/12 11:23:58;;;;;;;1.65;1.02;;;;;;;28.80;24.71;98940.91;5133452;27;20054;-77
2022/08/12 11:26:24;;;;;;;2.38;1.30;;;;;;;28.71;24.40;98938.00;5133444;27;20054;-76
2022/08/12 11:28:51;;;;;;;4.18;1.40;;;;;;;29.01;24.42;98948.84;5133340;27;20386;-77
2022/08/12 11:31:17;;;;;;;1.85;1.23;;;;;;;29.21;24.17;98951.22;5134322;27;20039;-77
2022/08/12 11:33:44;;;;;;;1.80;0.90;;;;;;;29.12;23.63;98950.28;5129769;27;20063;-77
2022/08/12 11:36:12;;;;;;;1.27;1.05;;;;;;;29.08;22.82;98950.06;5132352;27;20039;-77
2022/08/12 11:38:39;;;;;;;1.90;1.10;;;;;;;29.31;23.75;98952.97;5134171;27;20133;-77
2022/08/12 11:41:05;;;;;;;2.80;1.30;;;;;;;29.45;23.59;98944.53;5133992;27;20055;-77
2022/08/12 11:43:32;;;;;;;1.73;1.08;;;;;;;29.63;22.77;98925.91;5132988;27;20498;-77
2022/08/12 11:45:59;;;;;;;4.97;1.30;;;;;;;29.97;22.76;98941.34;5131820;27;20043;-77
2022/08/12 11:48:26;;;;;;;5.47;1.55;;;;;;;30.33;22.62;98946.81;5132310;27;20047;-77
2022/08/12 11:50:52;;;;;;;5.60;1.10;;;;;;;30.43;22.90;98931.75;5133700;27;20489;-77
2022/08/12 11:53:20;;;;;;;1.95;1.10;;;;;;;30.29;22.11;98916.94;5133235;27;20047;-76
2022/08/12 11:55:47;;;;;;;1.42;1.10;;;;;;;30.74;22.11;98944.06;5132594;27;20054;-76
2022/08/12 11:58:13;;;;;;;3.85;1.27;;;;;;;30.77;22.06;98924.59;5132854;27;20049;-77
2022/08/12 12:00:40;;;;;;;4.97;1.02;;;;;;;30.98;21.79;98924.00;5134065;27;20043;-76
2022/08/12 12:03:07;;;;;;;1.95;0.93;;;;;;;31.18;21.42;98934.66;5133169;27;20055;-76
2022/08/12 12:05:33;;;;;;;1.45;1.05;;;;;;;31.05;21.97;98928.00;5128463;27;20048;-76
2022/08/12 12:08:00;;;;;;;2.15;1.10;;;;;;;31.31;21.41;98943.25;5133275;27;20039;-76
2022/08/12 12:10:28;;;;;;;1.38;1.05;;;;;;;31.87;20.65;98920.94;5131130;27;20047;-76
2022/08/12 12:12:54;;;;;;;4.25;1.23;;;;;;;31.59;21.00;98910.09;5127940;27;20410;-77
2022/08/12 12:15:21;;;;;;;1.98;1.42;;;;;;;31.19;21.28;98896.97;5133716;27;20253;-77
2022/08/12 12:17:48;;;;;;;2.40;1.23;;;;;;;31.14;21.24;98925.22;5127377;27;20398;-77
2022/08/12 12:20:15;;;;;;;2.95;1.00;;;;;;;31.28;21.14;98913.00;5133025;27;20035;-77
2022/08/12 12:22:42;;;;;;;2.25;1.15;;;;;;;31.60;21.47;98897.66;5132640;27;20086;-76
2022/08/12 12:25:10;;;;;;;4.78;1.20;;;;;;;31.44;20.88;98936.66;5133547;27;20050;-77
2022/08/12 12:27:49;;;;;;;1.55;1.10;;;;;;;31.06;21.26;98907.22;5132027;27;20051;-76
2022/08/12 12:30:16;;;;;;;0.93;0.82;;;;;;;31.04;20.69;98898.31;5133388;27;20505;-77
2022/08/12 12:32:43;;;;;;;2.78;1.20;;;;;;;31.38;21.79;98916.31;5117708;27;20063;-76
2022/08/12 12:35:10;;;;;;;1.38;1.13;;;;;;;30.89;21.59;98896.75;5130980;27;20072;-77
2022/08/12 12:37:54;;;;;;;4.28;1.40;;;;;;;29.91;22.45;98921.03;5132863;27;20478;-77
2022/08/12 12:40:21;;;;;;;1.25;1.15;;;;;;;29.22;23.47;98912.88;5133150;27;20042;-77
2022/08/12 12:42:49;;;;;;;3.92;1.00;;;;;;;28.82;23.74;98909.81;5132290;27;20051;-77
2022/08/12 12:45:16;;;;;;;6.82;1.00;;;;;;;29.27;23.66;98894.00;5124956;27;20483;-76
2022/08/12 12:47:57;;;;;;;3.55;1.00;;;;;;;30.11;22.58;98902.00;5120262;27;20104;-77
2022/08/12 12:50:24;;;;;;;3.72;1.00;;;;;;;30.89;21.49;98887.50;5114308;27;20044;-77
2022/08/12 12:52:51;;;;;;;1.17;0.88;;;;;;;31.06;21.00;98883.94;5131794;27;20354;-76
2022/08/12 12:55:18;;;;;;;0.98;0.73;;;;;;;31.08;20.99;98900.44;5132916;27;20096;-77
2022/08/12 12:57:45;;;;;;;1.92;1.00;;;;;;;30.63;21.45;98888.25;5132786;27;20513;-76
2022/08/12 13:00:15;;;;;;;1.70;1.10;;;;;;;30.51;22.37;98904.88;5129110;27;20119;-77
2022/08/12 13:02:44;;;;;;;3.42;1.15;;;;;;;30.58;21.66;98870.75;5131788;27;20239;-77
2022/08/12 13:05:11;;;;;;;3.60;1.40;;;;;;;30.67;21.35;98897.69;5131746;27;20506;-77
2022/08/12 13:07:39;;;;;;;1.33;1.10;;;;;;;30.64;21.72;98909.56;5123123;27;20491;-76
2022/08/12 13:10:08;;;;;;;2.47;1.10;;;;;;;29.90;22.27;98905.38;5129343;27;20086;-78
2022/08/12 13:12:35;;;;;;;4.03;1.05;;;;;;;28.98;23.39;98882.31;5130064;27;20039;-77
2022/08/12 13:15:02;;;;;;;6.25;0.98;;;;;;;28.46;24.62;98882.56;5132393;27;20051;-77
2022/08/12 13:17:31;;;;;;;3.33;1.50;;;;;;;28.26;24.20;98879.03;5123937;27;20082;-77
2022/08/12 13:20:04;;;;;;;1.45;1.08;;;;;;;28.23;24.46;98907.59;5132018;27;20069;-76
2022/08/12 13:22:30;;;;;;;1.90;1.08;;;;;;;28.07;25.32;98873.50;5123186;27;20062;-76
2022/08/12 13:24:58;;;;;;;1.98;1.00;;;;;;;28.38;24.81;98864.53;5128976;27;20066;-77
2022/08/12 13:27:28;;;;;;;1.55;1.00;;;;;;;29.04;23.82;98876.31;5132202;27;20055;-76